createdAt,value
2022-07-26T00:00:29.207Z,87.04
2022-07-26T00:01:31.895Z,86.94
2022-07-26T00:02:29.235Z,87.44
2022-07-26T00:03:29.195Z,87.14
2022-07-26T00:04:29.177Z,88.34
2022-07-26T00:05:29.155Z,88.84
2022-07-26T00:06:29.138Z,88.14
2022-07-26T00:07:36.411Z,87.08
2022-07-26T00:08:30.135Z,88.29
2022-07-26T00:09:29.109Z,88.59
2022-07-26T00:10:29.102Z,89.33
2022-07-26T00:11:29.102Z,89.23
2022-07-26T00:12:29.082Z,89.63
2022-07-26T00:13:30.297Z,90.03
2022-07-26T00:14:29.061Z,90.73
2022-07-26T00:15:29.052Z,90.23
2022-07-26T00:16:29.147Z,89.73
2022-07-26T00:17:29.052Z,89.29
2022-07-26T00:18:29.031Z,89.29
2022-07-26T00:19:29.003Z,90.23
2022-07-26T00:20:29.008Z,89.69
2022-07-26T00:21:28.994Z,89.18
2022-07-26T00:22:28.986Z,89.79
2022-07-26T00:23:28.964Z,89.18
2022-07-26T00:24:32.359Z,88.93
2022-07-26T00:25:29.939Z,89.94
2022-07-26T00:26:28.948Z,90.03
2022-07-26T00:27:28.929Z,90.33
2022-07-26T00:28:28.948Z,90.23
2022-07-26T00:29:28.897Z,90.53
2022-07-26T00:30:28.894Z,90.59
2022-07-26T00:31:28.920Z,90.89
2022-07-26T00:32:28.873Z,89.29
2022-07-26T00:33:28.886Z,88.89
2022-07-26T00:34:28.863Z,89.59
2022-07-26T00:35:28.827Z,89.18
2022-07-26T00:36:28.846Z,89.29
2022-07-26T00:37:28.812Z,89.99
2022-07-26T00:38:28.826Z,89.09
2022-07-26T00:39:28.791Z,89.59
2022-07-26T00:40:28.773Z,89.18
2022-07-26T00:41:28.758Z,89.53
2022-07-26T00:42:28.752Z,90.33
2022-07-26T00:43:28.768Z,90.23
2022-07-26T00:44:28.743Z,89.73
2022-07-26T00:45:28.745Z,90.23
2022-07-26T00:46:28.768Z,89.83
2022-07-26T00:47:28.711Z,90.33
2022-07-26T00:48:28.770Z,91.14
2022-07-26T00:49:28.751Z,89.63
2022-07-26T00:50:28.695Z,89.94
2022-07-26T00:51:28.662Z,90.13
2022-07-26T00:52:28.696Z,89.94
2022-07-26T00:53:28.680Z,90.44
2022-07-26T00:54:28.646Z,90.03
2022-07-26T00:55:28.622Z,90.13
2022-07-26T00:56:28.617Z,90.64
2022-07-26T00:57:28.632Z,91.03
2022-07-26T00:58:28.618Z,90.53
2022-07-26T00:59:28.574Z,90.73
2022-07-26T01:00:28.556Z,90.33
2022-07-26T01:01:28.657Z,90.44
2022-07-26T01:02:28.598Z,90.03
2022-07-26T01:03:29.185Z,90.13
2022-07-26T01:04:29.517Z,90.33
2022-07-26T01:05:28.513Z,90.33
2022-07-26T01:06:28.496Z,90.44
2022-07-26T01:07:28.504Z,90.23
2022-07-26T01:08:28.506Z,90.53
2022-07-26T01:09:28.474Z,90.44
2022-07-26T01:10:28.460Z,90.44
2022-07-26T01:11:28.451Z,90.33
2022-07-26T01:12:28.449Z,90.13
2022-07-26T01:13:31.962Z,89.83
2022-07-26T01:14:29.425Z,89.94
2022-07-26T01:15:28.418Z,90.23
2022-07-26T01:16:28.454Z,90.13
2022-07-26T01:17:28.394Z,90.09
2022-07-26T01:18:28.386Z,89.99
2022-07-26T01:19:28.372Z,90.19
2022-07-26T01:20:28.351Z,90.29
2022-07-26T01:21:28.351Z,89.99
2022-07-26T01:22:28.323Z,90.09
2022-07-26T01:23:28.341Z,90.19
2022-07-26T01:24:28.310Z,90.39
2022-07-26T01:25:28.301Z,90.39
2022-07-26T01:26:28.305Z,90.39
2022-07-26T01:27:33.527Z,90.79
2022-07-26T01:28:29.277Z,90.59
2022-07-26T01:29:35.394Z,90.59
2022-07-26T01:30:29.242Z,90.49
2022-07-26T01:31:28.294Z,90.39
2022-07-26T01:32:28.251Z,90.19
2022-07-26T01:33:28.247Z,90.29
2022-07-26T01:34:28.239Z,90.59
2022-07-26T01:35:29.205Z,90.39
2022-07-26T01:36:28.204Z,90.29
2022-07-26T01:37:28.175Z,90.29
2022-07-26T01:38:28.173Z,90.59
2022-07-26T01:39:28.166Z,90.79
2022-07-26T01:40:28.142Z,90.99
2022-07-26T01:41:38.157Z,91.19
2022-07-26T01:42:29.139Z,91.39
2022-07-26T01:43:28.113Z,90.95
2022-07-26T01:44:28.099Z,90.65
2022-07-26T01:45:28.153Z,90.95
2022-07-26T01:46:28.164Z,90.95
2022-07-26T01:47:28.068Z,91.05
2022-07-26T01:48:28.143Z,90.65
2022-07-26T01:49:28.049Z,90.45
2022-07-26T01:50:28.060Z,90.55
2022-07-26T01:51:28.010Z,90.75
2022-07-26T01:52:28.012Z,90.05
2022-07-26T01:53:28.011Z,89.85
2022-07-26T01:54:28.006Z,89.95
2022-07-26T01:55:28.001Z,90.25
2022-07-26T01:56:27.988Z,90.45
2022-07-26T01:57:27.950Z,90.25
2022-07-26T01:58:27.962Z,90.25
2022-07-26T01:59:27.938Z,90.25
2022-07-26T02:00:27.934Z,90.45
2022-07-26T02:01:38.118Z,90.55
2022-07-26T02:02:28.956Z,90.65
2022-07-26T02:03:27.894Z,90.45
2022-07-26T02:04:27.876Z,90.45
2022-07-26T02:05:27.888Z,89.95
2022-07-26T02:06:27.877Z,89.85
2022-07-26T02:07:27.851Z,90.05
2022-07-26T02:08:27.843Z,90.25
2022-07-26T02:09:28.886Z,90.05
2022-07-26T02:10:27.837Z,90.15
2022-07-26T02:11:27.807Z,90.45
2022-07-26T02:12:27.798Z,90.45
2022-07-26T02:13:27.799Z,90.50
2022-07-26T02:14:27.990Z,90.61
2022-07-26T02:15:27.789Z,90.41
2022-07-26T02:16:27.785Z,90.31
2022-07-26T02:17:27.747Z,90.20
2022-07-26T02:18:27.749Z,90.31
2022-07-26T02:19:27.719Z,90.31
2022-07-26T02:20:27.765Z,90.41
2022-07-26T02:21:27.701Z,90.41
2022-07-26T02:22:27.719Z,90.61
2022-07-26T02:23:27.686Z,90.66
2022-07-26T02:24:27.661Z,90.70
2022-07-26T02:25:27.709Z,90.66
2022-07-26T02:26:27.651Z,90.86
2022-07-26T02:27:27.631Z,91.01
2022-07-26T02:28:27.624Z,91.41
2022-07-26T02:29:27.612Z,91.71
2022-07-26T02:30:27.618Z,92.01
2022-07-26T02:31:32.045Z,92.46
2022-07-26T02:32:27.542Z,92.66
2022-07-26T02:33:27.563Z,92.31
2022-07-26T02:34:29.912Z,92.31
2022-07-26T02:35:27.521Z,92.25
2022-07-26T02:36:27.493Z,92.35
2022-07-26T02:37:27.481Z,92.66
2022-07-26T02:38:27.477Z,92.76
2022-07-26T02:39:27.473Z,92.96
2022-07-26T02:40:27.481Z,93.30
2022-07-26T02:41:27.437Z,93.46
2022-07-26T02:42:27.426Z,93.30
2022-07-26T02:43:27.462Z,93.36
2022-07-26T02:44:27.412Z,93.26
2022-07-26T02:45:27.426Z,93.40
2022-07-26T02:46:27.401Z,93.46
2022-07-26T02:47:27.372Z,93.50
2022-07-26T02:48:27.382Z,93.30
2022-07-26T02:49:27.347Z,93.10
2022-07-26T02:50:27.358Z,92.70
2022-07-26T02:51:27.328Z,92.50
2022-07-26T02:52:27.311Z,92.60
2022-07-26T02:53:27.307Z,92.70
2022-07-26T02:54:27.304Z,92.80
2022-07-26T02:55:27.290Z,93.20
2022-07-26T02:56:27.310Z,93.20
2022-07-26T02:57:27.272Z,93.30
2022-07-26T02:58:27.264Z,93.20
2022-07-26T02:59:27.259Z,92.90
2022-07-26T03:00:27.245Z,92.55
2022-07-26T03:01:27.293Z,91.75
2022-07-26T03:02:27.253Z,91.15
2022-07-26T03:03:27.202Z,90.95
2022-07-26T03:04:27.194Z,90.65
2022-07-26T03:05:27.181Z,90.45
2022-07-26T03:06:27.193Z,90.45
2022-07-26T03:07:27.160Z,90.35
2022-07-26T03:08:27.154Z,90.45
2022-07-26T03:09:27.127Z,90.25
2022-07-26T03:10:27.133Z,90.15
2022-07-26T03:11:27.132Z,90.15
2022-07-26T03:12:27.107Z,90.35
2022-07-26T03:13:27.117Z,90.35
2022-07-26T03:14:27.103Z,90.25
2022-07-26T03:15:27.149Z,90.35
2022-07-26T03:16:29.591Z,90.45
2022-07-26T03:17:27.049Z,90.45
2022-07-26T03:18:27.039Z,90.45
2022-07-26T03:19:27.045Z,90.65
2022-07-26T03:20:27.007Z,90.45
2022-07-26T03:21:27.014Z,90.55
2022-07-26T03:22:27.013Z,90.79
2022-07-26T03:23:26.992Z,91.19
2022-07-26T03:24:26.968Z,91.30
2022-07-26T03:25:26.979Z,91.69
2022-07-26T03:26:26.990Z,91.60
2022-07-26T03:27:26.958Z,91.80
2022-07-26T03:28:26.937Z,91.69
2022-07-26T03:29:26.918Z,91.50
2022-07-26T03:30:27.044Z,91.50
2022-07-26T03:31:27.040Z,91.09
2022-07-26T03:32:26.880Z,91.19
2022-07-26T03:33:26.870Z,91.09
2022-07-26T03:34:26.859Z,90.79
2022-07-26T03:35:26.850Z,90.99
2022-07-26T03:36:26.853Z,90.99
2022-07-26T03:37:26.840Z,91.60
2022-07-26T03:38:27.825Z,91.24
2022-07-26T03:39:26.814Z,91.24
2022-07-26T03:40:26.803Z,91.34
2022-07-26T03:41:26.812Z,91.24
2022-07-26T03:42:26.796Z,91.03
2022-07-26T03:43:26.770Z,91.14
2022-07-26T03:44:26.754Z,90.84
2022-07-26T03:45:26.743Z,90.64
2022-07-26T03:46:26.818Z,90.64
2022-07-26T03:47:26.729Z,90.64
2022-07-26T03:48:26.761Z,90.53
2022-07-26T03:49:26.801Z,90.84
2022-07-26T03:50:26.713Z,90.23
2022-07-26T03:51:26.675Z,89.23
2022-07-26T03:52:26.686Z,88.93
2022-07-26T03:53:26.657Z,88.53
2022-07-26T03:54:26.666Z,88.53
2022-07-26T03:55:26.652Z,87.42
2022-07-26T03:56:26.650Z,87.02
2022-07-26T03:57:28.349Z,86.32
2022-07-26T03:58:26.625Z,86.52
2022-07-26T03:59:26.603Z,86.12
2022-07-26T04:00:26.647Z,86.32
2022-07-26T04:01:26.670Z,85.72
2022-07-26T04:02:26.650Z,85.52
2022-07-26T04:03:26.559Z,85.02
2022-07-26T04:04:26.648Z,84.81
2022-07-26T04:05:26.530Z,84.71
2022-07-26T04:06:26.520Z,84.21
2022-07-26T04:07:27.118Z,84.11
2022-07-26T04:08:26.491Z,83.31
2022-07-26T04:09:26.521Z,83.71
2022-07-26T04:10:26.472Z,83.91
2022-07-26T04:11:28.766Z,83.81
2022-07-26T04:12:26.485Z,83.21
2022-07-26T04:13:26.453Z,83.41
2022-07-26T04:14:26.432Z,82.60
2022-07-26T04:15:26.436Z,82.60
2022-07-26T04:16:26.473Z,82.10
2022-07-26T04:17:26.489Z,82.51
2022-07-26T04:18:26.402Z,82.60
2022-07-26T04:19:26.387Z,82.20
2022-07-26T04:20:26.372Z,81.50
2022-07-26T04:21:26.386Z,81.60
2022-07-26T04:22:26.352Z,81.70
2022-07-26T04:23:26.335Z,81.50
2022-07-26T04:24:26.324Z,80.90
2022-07-26T04:25:26.319Z,81.20
2022-07-26T04:26:26.309Z,80.90
2022-07-26T04:27:26.312Z,80.90
2022-07-26T04:28:26.286Z,80.90
2022-07-26T04:29:26.265Z,80.70
2022-07-26T04:30:26.327Z,80.80
2022-07-26T04:31:26.339Z,81.00
2022-07-26T04:32:26.261Z,81.20
2022-07-26T04:33:26.236Z,80.80
2022-07-26T04:34:26.220Z,80.30
2022-07-26T04:35:26.226Z,80.40
2022-07-26T04:36:26.205Z,80.30
2022-07-26T04:37:26.218Z,80.26
2022-07-26T04:38:26.188Z,80.16
2022-07-26T04:39:26.172Z,79.96
2022-07-26T04:40:26.183Z,79.60
2022-07-26T04:41:26.149Z,79.60
2022-07-26T04:42:26.182Z,79.55
2022-07-26T04:43:26.141Z,79.55
2022-07-26T04:44:26.124Z,79.46
2022-07-26T04:45:26.110Z,79.36
2022-07-26T04:46:26.145Z,79.46
2022-07-26T04:47:26.110Z,79.05
2022-07-26T04:48:26.085Z,78.66
2022-07-26T04:49:26.065Z,78.85
2022-07-26T04:50:26.059Z,78.52
2022-07-26T04:51:26.092Z,78.02
2022-07-26T04:52:26.052Z,77.41
2022-07-26T04:53:26.017Z,77.61
2022-07-26T04:54:26.035Z,77.37
2022-07-26T04:55:26.003Z,77.78
2022-07-26T04:56:25.990Z,77.58
2022-07-26T04:57:25.998Z,76.87
2022-07-26T04:58:25.997Z,77.08
2022-07-26T04:59:25.954Z,76.57
2022-07-26T05:00:25.959Z,76.74
2022-07-26T05:01:25.998Z,76.43
2022-07-26T05:02:26.033Z,75.10
2022-07-26T05:03:25.928Z,74.80
2022-07-26T05:04:25.905Z,74.40
2022-07-26T05:05:25.895Z,75.00
2022-07-26T05:06:25.886Z,74.50
2022-07-26T05:07:25.903Z,73.76
2022-07-26T05:08:25.896Z,72.96
2022-07-26T05:09:25.851Z,72.92
2022-07-26T05:10:25.841Z,72.72
2022-07-26T05:11:25.865Z,73.33
2022-07-26T05:12:25.840Z,72.42
2022-07-26T05:13:29.927Z,72.69
2022-07-26T05:14:26.789Z,71.76
2022-07-26T05:15:25.791Z,70.96
2022-07-26T05:16:26.841Z,71.19
2022-07-26T05:17:26.077Z,71.62
2022-07-26T05:18:25.795Z,72.03
2022-07-26T05:19:25.744Z,73.33
2022-07-26T05:20:25.754Z,73.03
2022-07-26T05:21:25.739Z,72.16
2022-07-26T05:22:25.713Z,72.76
2022-07-26T05:23:25.723Z,73.06
2022-07-26T05:24:25.694Z,72.96
2022-07-26T05:25:25.697Z,73.56
2022-07-26T05:26:25.696Z,73.03
2022-07-26T05:27:25.665Z,72.09
2022-07-26T05:28:25.675Z,71.46
2022-07-26T05:29:25.665Z,70.49
2022-07-26T05:30:25.703Z,69.66
2022-07-26T05:31:25.652Z,69.26
2022-07-26T05:32:25.643Z,68.83
2022-07-26T05:33:25.605Z,68.63
2022-07-26T05:34:25.586Z,68.43
2022-07-26T05:35:25.577Z,67.57
2022-07-26T05:36:25.612Z,66.04
2022-07-26T05:37:25.562Z,66.14
2022-07-26T05:38:25.566Z,64.12
2022-07-26T05:39:25.538Z,64.87
2022-07-26T05:40:25.528Z,66.27
2022-07-26T05:41:25.515Z,67.80
2022-07-26T05:42:25.498Z,67.76
2022-07-26T05:43:25.514Z,67.66
2022-07-26T05:44:25.520Z,67.83
2022-07-26T05:45:25.470Z,67.20
2022-07-26T05:46:25.537Z,66.31
2022-07-26T05:47:25.468Z,63.76
2022-07-26T05:48:25.471Z,63.59
2022-07-26T05:49:25.430Z,63.43
2022-07-26T05:50:25.417Z,62.01
2022-07-26T05:52:19.305Z,60.46
2022-07-26T05:53:19.565Z,58.91
2022-07-26T05:54:19.564Z,58.56
2022-07-26T05:55:19.517Z,56.85
2022-07-26T05:56:19.494Z,57.54
2022-07-26T05:57:19.509Z,57.37
2022-07-26T05:58:19.517Z,57.10
2022-07-26T05:59:19.470Z,57.50
2022-07-26T06:00:19.485Z,57.82
2022-07-26T06:01:19.475Z,59.14
2022-07-26T06:02:19.499Z,58.25
2022-07-26T06:03:19.448Z,59.00
2022-07-26T06:04:19.457Z,60.71
2022-07-26T06:05:19.441Z,60.35
2022-07-26T06:06:19.424Z,61.14
2022-07-26T06:07:19.393Z,59.74
2022-07-26T06:08:19.432Z,58.91
2022-07-26T06:09:19.373Z,59.14
2022-07-26T06:10:19.361Z,60.09
2022-07-26T06:11:19.360Z,59.62
2022-07-26T06:12:19.353Z,59.92
2022-07-26T06:13:19.361Z,60.55
2022-07-26T06:14:19.329Z,60.97
2022-07-26T06:15:19.317Z,59.03
2022-07-26T06:16:19.304Z,57.90
2022-07-26T06:17:19.398Z,58.20
2022-07-26T06:18:19.317Z,59.12
2022-07-26T06:19:19.258Z,58.47
2022-07-26T06:20:19.253Z,57.62
2022-07-26T06:21:19.256Z,57.03
2022-07-26T06:22:19.247Z,57.25
2022-07-26T06:23:33.572Z,57.41
2022-07-26T06:24:20.220Z,59.32
2022-07-26T06:25:19.226Z,58.77
2022-07-26T06:26:19.197Z,57.25
2022-07-26T06:27:19.188Z,57.87
2022-07-26T06:28:19.191Z,58.92
2022-07-26T06:29:19.160Z,59.30
2022-07-26T06:30:19.163Z,58.10
2022-07-26T06:31:19.221Z,58.40
2022-07-26T06:32:19.136Z,57.98
2022-07-26T06:33:19.148Z,58.67
2022-07-26T06:34:19.200Z,57.38
2022-07-26T06:35:19.133Z,58.62
2022-07-26T06:36:19.119Z,59.88
2022-07-26T06:37:19.101Z,60.08
2022-07-26T06:38:19.098Z,59.03
2022-07-26T06:39:19.054Z,60.19
2022-07-26T06:40:19.052Z,58.40
2022-07-26T06:41:19.056Z,58.00
2022-07-26T06:42:19.024Z,60.46
2022-07-26T06:43:19.053Z,58.54
2022-07-26T06:44:19.035Z,56.85
2022-07-26T06:45:18.998Z,57.18
2022-07-26T06:46:19.085Z,58.10
2022-07-26T06:47:19.012Z,58.97
2022-07-26T06:48:19.000Z,57.25
2022-07-26T06:49:22.387Z,59.04
2022-07-26T06:50:21.371Z,56.53
2022-07-26T06:51:19.958Z,57.92
2022-07-26T06:52:18.927Z,55.11
2022-07-26T06:53:18.946Z,55.58
2022-07-26T06:54:18.920Z,54.60
2022-07-26T06:55:18.922Z,56.21
2022-07-26T06:56:18.901Z,55.88
2022-07-26T06:57:18.887Z,54.67
2022-07-26T06:58:18.874Z,54.67
2022-07-26T06:59:18.866Z,53.75
2022-07-26T07:00:18.948Z,53.97
2022-07-26T07:01:58.024Z,55.21
2022-07-26T07:02:19.831Z,55.64
2022-07-26T07:03:18.813Z,56.46
2022-07-26T07:04:18.871Z,56.04
2022-07-26T07:05:18.909Z,56.13
2022-07-26T07:06:18.823Z,54.94
2022-07-26T07:07:18.810Z,54.92
2022-07-26T07:08:18.812Z,56.51
2022-07-26T07:09:18.813Z,55.68
2022-07-26T07:10:19.341Z,54.60
2022-07-26T07:11:19.724Z,55.04
2022-07-26T07:12:18.772Z,57.06
2022-07-26T07:13:19.485Z,57.11
2022-07-26T07:14:18.732Z,57.73
2022-07-26T07:15:18.695Z,58.91
2022-07-26T07:16:18.809Z,60.46
2022-07-26T07:17:20.373Z,61.82
2022-07-26T07:18:18.687Z,63.27
2022-07-26T07:19:18.649Z,63.97
2022-07-26T07:20:18.650Z,63.97
2022-07-26T07:21:18.655Z,65.37
2022-07-26T07:22:18.619Z,64.27
2022-07-26T07:23:18.650Z,64.57
2022-07-26T07:24:18.594Z,66.36
2022-07-26T07:25:18.595Z,64.74
2022-07-26T07:26:18.622Z,64.14
2022-07-26T07:27:18.558Z,65.47
2022-07-26T07:28:18.574Z,65.77
2022-07-26T07:29:18.559Z,64.94
2022-07-26T07:30:18.529Z,64.14
2022-07-26T07:31:18.564Z,63.94
2022-07-26T07:32:19.728Z,64.67
2022-07-26T07:33:22.524Z,65.00
2022-07-26T07:34:19.534Z,65.60
2022-07-26T07:35:18.469Z,64.70
2022-07-26T07:36:18.491Z,64.67
2022-07-26T07:37:18.485Z,64.40
2022-07-26T07:38:18.450Z,64.83
2022-07-26T07:39:18.468Z,65.43
2022-07-26T07:40:18.442Z,67.03
2022-07-26T07:41:18.414Z,66.30
2022-07-26T07:42:18.426Z,65.17
2022-07-26T07:43:18.450Z,63.44
2022-07-26T07:44:18.392Z,62.84
2022-07-26T07:45:18.394Z,63.34
2022-07-26T07:46:18.378Z,62.71
2022-07-26T07:47:18.406Z,63.01
2022-07-26T07:48:18.346Z,63.01
2022-07-26T07:49:18.382Z,62.78
2022-07-26T07:50:18.321Z,61.99
2022-07-26T07:51:18.335Z,61.82
2022-07-26T07:52:18.326Z,62.15
2022-07-26T07:53:18.324Z,62.84
2022-07-26T07:54:18.313Z,63.84
2022-07-26T07:55:40.481Z,62.31
2022-07-26T07:56:19.272Z,61.09
2022-07-26T07:57:18.247Z,61.99
2022-07-26T07:58:18.819Z,60.36
2022-07-26T07:59:18.274Z,60.19
2022-07-26T08:00:18.248Z,60.72
2022-07-26T08:01:18.263Z,60.92
2022-07-26T08:02:18.203Z,60.82
2022-07-26T08:03:19.048Z,62.08
2022-07-26T08:04:18.269Z,60.96
2022-07-26T08:05:18.172Z,61.43
2022-07-26T08:06:18.149Z,59.11
2022-07-26T08:07:18.131Z,58.91
2022-07-26T08:08:18.142Z,59.53
2022-07-26T08:09:18.158Z,60.76
2022-07-26T08:10:18.119Z,60.24
2022-07-26T08:11:18.104Z,60.13
2022-07-26T08:12:18.125Z,59.83
2022-07-26T08:13:18.296Z,61.13
2022-07-26T08:14:18.112Z,61.20
2022-07-26T08:15:18.057Z,59.11
2022-07-26T08:16:18.108Z,59.68
2022-07-26T08:17:18.067Z,60.87
2022-07-26T08:18:18.025Z,59.35
2022-07-26T08:19:18.008Z,59.38
2022-07-26T08:20:18.044Z,58.09
2022-07-26T08:21:17.999Z,59.48
2022-07-26T08:22:18.004Z,59.41
2022-07-26T08:23:18.054Z,58.61
2022-07-26T08:24:17.967Z,59.14
2022-07-26T08:25:18.035Z,59.89
2022-07-26T08:26:17.955Z,60.49
2022-07-26T08:27:17.949Z,61.32
2022-07-26T08:28:31.062Z,61.52
2022-07-26T08:29:18.919Z,62.34
2022-07-26T08:30:18.042Z,63.24
2022-07-26T08:31:17.940Z,61.55
2022-07-26T08:32:17.873Z,61.35
2022-07-26T08:33:17.873Z,62.01
2022-07-26T08:34:17.883Z,62.12
2022-07-26T08:35:19.993Z,62.31
2022-07-26T08:36:17.841Z,60.82
2022-07-26T08:37:18.375Z,61.22
2022-07-26T08:38:17.825Z,61.32
2022-07-26T08:39:17.813Z,61.71
2022-07-26T08:40:17.819Z,61.22
2022-07-26T08:41:17.890Z,61.35
2022-07-26T08:42:17.783Z,61.65
2022-07-26T08:43:18.767Z,62.15
2022-07-26T08:44:17.758Z,62.54
2022-07-26T08:45:17.772Z,62.64
2022-07-26T08:46:21.426Z,61.32
2022-07-26T08:47:21.462Z,60.52
2022-07-26T08:48:18.981Z,60.65
2022-07-26T08:49:17.835Z,60.75
2022-07-26T08:50:17.748Z,61.08
2022-07-26T08:51:17.695Z,61.08
2022-07-26T08:52:17.698Z,60.68
2022-07-26T08:53:17.671Z,61.08
2022-07-26T08:54:17.665Z,60.88
2022-07-26T08:55:17.655Z,60.88
2022-07-26T08:56:17.642Z,60.78
2022-07-26T08:57:17.629Z,60.68
2022-07-26T08:58:17.621Z,60.58
2022-07-26T08:59:20.645Z,60.68
2022-07-26T09:00:17.602Z,60.58
2022-07-26T09:01:17.653Z,60.58
2022-07-26T09:02:17.564Z,60.68
2022-07-26T09:03:17.582Z,60.38
2022-07-26T09:04:30.423Z,60.68
2022-07-26T09:05:18.586Z,61.10
2022-07-26T09:06:17.525Z,61.00
2022-07-26T09:07:17.522Z,61.30
2022-07-26T09:08:17.560Z,61.41
2022-07-26T09:09:17.494Z,61.47
2022-07-26T09:10:17.510Z,61.08
2022-07-26T09:11:17.463Z,60.85
2022-07-26T09:12:17.460Z,60.25
2022-07-26T09:13:17.467Z,60.02
2022-07-26T09:14:17.448Z,59.72
2022-07-26T09:15:17.456Z,60.15
2022-07-26T09:16:17.504Z,60.05
2022-07-26T09:17:17.400Z,59.52
2022-07-26T09:18:17.388Z,60.12
2022-07-26T09:19:17.412Z,59.69
2022-07-26T09:20:17.398Z,59.69
2022-07-26T09:21:18.382Z,58.89
2022-07-26T09:22:17.350Z,59.19
2022-07-26T09:23:17.351Z,58.87
2022-07-26T09:24:17.372Z,58.17
2022-07-26T09:25:17.328Z,57.35
2022-07-26T09:26:17.331Z,57.12
2022-07-26T09:27:17.305Z,58.01
2022-07-26T09:28:17.312Z,57.09
2022-07-26T09:29:17.306Z,55.08
2022-07-26T09:30:17.272Z,54.58
2022-07-26T09:31:17.319Z,54.41
2022-07-26T09:32:17.317Z,54.88
2022-07-26T09:33:17.264Z,54.80
2022-07-26T09:34:17.222Z,54.80
2022-07-26T09:35:45.814Z,55.30
2022-07-26T09:36:18.233Z,55.60
2022-07-26T09:37:17.205Z,55.80
2022-07-26T09:38:17.225Z,54.80
2022-07-26T09:39:17.203Z,55.00
2022-07-26T09:40:17.172Z,55.23
2022-07-26T09:41:18.588Z,55.53
2022-07-26T09:42:28.548Z,56.12
2022-07-26T09:43:19.869Z,56.15
2022-07-26T09:44:18.140Z,55.82
2022-07-26T09:45:17.127Z,55.53
2022-07-26T09:46:17.194Z,55.53
2022-07-26T09:47:17.102Z,55.95
2022-07-26T09:48:17.112Z,56.02
2022-07-26T09:49:17.144Z,55.53
2022-07-26T09:50:17.192Z,55.63
2022-07-26T09:51:17.064Z,55.10
2022-07-26T09:52:17.045Z,54.75
2022-07-26T09:53:17.061Z,55.12
2022-07-26T09:54:17.171Z,54.30
2022-07-26T09:55:17.019Z,54.10
2022-07-26T09:56:17.021Z,54.00
2022-07-26T09:57:16.989Z,53.41
2022-07-26T09:58:17.568Z,53.51
2022-07-26T09:59:16.987Z,52.81
2022-07-26T10:00:16.966Z,52.39
2022-07-26T10:01:17.030Z,52.51
2022-07-26T10:02:16.946Z,53.04
2022-07-26T10:03:17.010Z,53.23
2022-07-26T10:04:16.922Z,53.46
2022-07-26T10:05:16.899Z,52.84
2022-07-26T10:06:16.924Z,53.04
2022-07-26T10:07:16.929Z,52.84
2022-07-26T10:08:16.889Z,53.21
2022-07-26T10:09:16.861Z,53.58
2022-07-26T10:10:16.851Z,53.58
2022-07-26T10:11:16.919Z,53.96
2022-07-26T10:12:16.883Z,53.08
2022-07-26T10:13:16.834Z,53.21
2022-07-26T10:14:16.788Z,54.70
2022-07-26T10:15:16.801Z,54.21
2022-07-26T10:16:17.882Z,54.63
2022-07-26T10:17:16.806Z,54.33
2022-07-26T10:18:18.398Z,54.06
2022-07-26T10:19:16.773Z,54.18
2022-07-26T10:20:19.365Z,54.58
2022-07-26T10:21:17.740Z,55.00
2022-07-26T10:22:16.741Z,55.50
2022-07-26T10:23:16.707Z,55.50
2022-07-26T10:24:16.699Z,55.40
2022-07-26T10:25:16.694Z,55.40
2022-07-26T10:26:16.706Z,55.53
2022-07-26T10:27:16.703Z,55.82
2022-07-26T10:28:16.655Z,56.62
2022-07-26T10:29:16.653Z,55.82
2022-07-26T10:30:16.645Z,55.43
2022-07-26T10:31:16.675Z,55.53
2022-07-26T10:32:16.647Z,55.70
2022-07-26T10:33:16.636Z,55.30
2022-07-26T10:34:16.598Z,55.10
2022-07-26T10:35:16.607Z,55.10
2022-07-26T10:36:16.579Z,55.10
2022-07-26T10:37:16.601Z,55.23
2022-07-26T10:38:16.585Z,55.30
2022-07-26T10:39:16.571Z,55.30
2022-07-26T10:40:16.556Z,54.97
2022-07-26T10:41:16.523Z,54.68
2022-07-26T10:42:16.557Z,54.58
2022-07-26T10:43:39.622Z,55.00
2022-07-26T10:44:17.488Z,54.78
2022-07-26T10:45:16.486Z,54.48
2022-07-26T10:46:16.737Z,54.90
2022-07-26T10:47:16.487Z,54.80
2022-07-26T10:48:16.461Z,54.60
2022-07-26T10:49:16.465Z,55.03
2022-07-26T10:50:16.476Z,55.43
2022-07-26T10:51:16.436Z,55.63
2022-07-26T10:52:16.438Z,55.85
2022-07-26T10:53:16.391Z,55.76
2022-07-26T10:54:16.693Z,55.95
2022-07-26T10:55:16.414Z,56.08
2022-07-26T10:56:16.365Z,56.08
2022-07-26T10:57:16.404Z,55.98
2022-07-26T10:58:16.343Z,56.27
2022-07-26T10:59:32.915Z,56.38
2022-07-26T11:00:17.319Z,55.55
2022-07-26T11:01:16.342Z,54.75
2022-07-26T11:02:16.342Z,54.73
2022-07-26T11:03:16.431Z,54.41
2022-07-26T11:04:16.276Z,54.21
2022-07-26T11:05:16.294Z,54.28
2022-07-26T11:06:16.274Z,54.18
2022-07-26T11:07:16.268Z,53.98
2022-07-26T11:08:16.248Z,54.06
2022-07-26T11:09:16.232Z,53.33
2022-07-26T11:10:16.225Z,52.74
2022-07-26T11:11:16.205Z,52.72
2022-07-26T11:12:16.184Z,52.31
2022-07-26T11:13:16.198Z,52.51
2022-07-26T11:14:17.143Z,52.64
2022-07-26T11:15:16.180Z,52.51
2022-07-26T11:16:16.199Z,52.72
2022-07-26T11:17:16.135Z,52.59
2022-07-26T11:18:16.126Z,52.47
2022-07-26T11:19:16.132Z,52.26
2022-07-26T11:20:16.103Z,51.35
2022-07-26T11:21:16.097Z,51.05
2022-07-26T11:22:16.093Z,51.45
2022-07-26T11:23:16.105Z,51.15
2022-07-26T11:24:16.058Z,51.54
2022-07-26T11:25:16.066Z,50.43
2022-07-26T11:26:16.036Z,51.42
2022-07-26T11:27:16.026Z,51.05
2022-07-26T11:28:16.025Z,52.44
2022-07-26T11:29:16.821Z,51.65
2022-07-26T11:30:16.010Z,53.23
2022-07-26T11:31:16.033Z,51.42
2022-07-26T11:32:17.667Z,51.84
2022-07-26T11:33:15.987Z,52.04
2022-07-26T11:34:15.968Z,52.26
2022-07-26T11:35:15.953Z,53.16
2022-07-26T11:36:15.938Z,53.26
2022-07-26T11:37:15.961Z,52.86
2022-07-26T11:38:15.971Z,53.36
2022-07-26T11:39:15.929Z,53.36
2022-07-26T11:40:15.902Z,53.06
2022-07-26T11:41:15.890Z,54.15
2022-07-26T11:42:15.896Z,53.26
2022-07-26T11:43:15.873Z,54.15
2022-07-26T11:44:16.267Z,53.23
2022-07-26T11:45:15.874Z,52.44
2022-07-26T11:46:15.909Z,52.56
2022-07-26T11:47:15.855Z,53.08
2022-07-26T11:48:15.812Z,53.19
2022-07-26T11:49:15.896Z,53.19
2022-07-26T11:50:22.660Z,53.08
2022-07-26T11:51:16.809Z,54.28
2022-07-26T11:52:15.776Z,52.98
2022-07-26T11:53:16.756Z,52.98
2022-07-26T11:54:15.746Z,53.08
2022-07-26T11:55:15.755Z,52.69
2022-07-26T11:56:15.729Z,53.31
2022-07-26T11:57:15.716Z,53.91
2022-07-26T11:58:15.708Z,53.21
2022-07-26T11:59:15.744Z,53.41
2022-07-26T12:00:15.718Z,52.34
2022-07-26T12:01:15.670Z,53.73
2022-07-26T12:02:15.707Z,53.14
2022-07-26T12:03:15.648Z,53.33
2022-07-26T12:04:17.019Z,52.31
2022-07-26T12:05:15.827Z,52.31
2022-07-26T12:06:15.630Z,51.32
2022-07-26T12:07:15.634Z,51.75
2022-07-26T12:08:15.602Z,52.04
2022-07-26T12:09:15.605Z,52.44
2022-07-26T12:10:15.573Z,52.94
2022-07-26T12:11:15.573Z,53.36
2022-07-26T12:12:15.565Z,53.96
2022-07-26T12:13:15.757Z,53.96
2022-07-26T12:14:18.562Z,54.25
2022-07-26T12:15:15.546Z,54.48
2022-07-26T12:16:15.768Z,54.88
2022-07-26T12:17:15.510Z,55.30
2022-07-26T12:18:15.488Z,55.93
2022-07-26T12:19:15.517Z,55.23
2022-07-26T12:20:15.496Z,55.16
2022-07-26T12:21:15.464Z,54.16
2022-07-26T12:22:15.459Z,54.75
2022-07-26T12:23:16.318Z,54.19
2022-07-26T12:24:15.461Z,54.19
2022-07-26T12:25:15.428Z,54.49
2022-07-26T12:26:15.425Z,55.18
2022-07-26T12:27:15.426Z,57.10
2022-07-26T12:28:15.388Z,58.83
2022-07-26T12:29:15.402Z,60.65
2022-07-26T12:30:15.378Z,61.74
2022-07-26T12:31:15.448Z,63.47
2022-07-26T12:32:15.401Z,66.30
2022-07-26T12:33:15.355Z,67.96
2022-07-26T12:34:15.335Z,69.79
2022-07-26T12:35:15.348Z,70.59
2022-07-26T12:36:15.313Z,71.23
2022-07-26T12:37:15.311Z,71.76
2022-07-26T12:38:15.286Z,73.39
2022-07-26T12:39:15.325Z,74.10
2022-07-26T12:40:15.299Z,74.93
2022-07-26T12:41:15.301Z,76.24
2022-07-26T12:42:19.389Z,77.67
2022-07-26T12:43:16.248Z,78.18
2022-07-26T12:44:15.862Z,79.38
2022-07-26T12:45:15.245Z,79.68
2022-07-26T12:46:15.276Z,80.82
2022-07-26T12:47:15.195Z,81.62
2022-07-26T12:48:15.191Z,82.63
2022-07-26T12:49:15.267Z,82.37
2022-07-26T12:50:15.181Z,83.47
2022-07-26T12:51:15.159Z,83.97
2022-07-26T12:52:15.166Z,83.41
2022-07-26T12:53:15.149Z,84.91